Time;durP1;ratioP1;P1;durP2;ratioP2;P2;SDS_P1;SDS_P2;PMS_P1;PMS_P2;Temp;Humidity;BMP_temperature;BMP_pressure;BME280_temperature;BME280_humidity;BME280_pressure;Samples;Min_cycle;Max_cycle;Signal;HPM_P1;HPM_P2
2021/03/01 00:01:48;;;;;;;32.80;13.62;;;;;;;2.39;84.73;100453.25;2178506;81;21280;-66
2021/03/01 00:04:49;;;;;;;34.18;14.33;;;;;;;2.40;84.50;100452.84;2178489;81;21265;-68
2021/03/01 00:07:50;;;;;;;33.20;13.60;;;;;;;2.41;84.15;100451.95;2178605;81;21565;-67
2021/03/01 00:10:51;;;;;;;32.17;13.05;;;;;;;2.43;83.88;100450.24;2178737;82;21264;-67
2021/03/01 00:13:52;;;;;;;33.18;14.30;;;;;;;2.47;84.33;100449.78;2178474;81;21288;-67
2021/03/01 00:16:53;;;;;;;35.35;13.25;;;;;;;2.46;84.29;100456.70;2178592;81;21257;-67
2021/03/01 00:19:54;;;;;;;32.70;14.00;;;;;;;2.46;84.27;100451.94;2150746;82;21151;-67
2021/03/01 00:22:56;;;;;;;35.50;13.85;;;;;;;2.44;84.25;100451.95;2178583;81;21665;-68
2021/03/01 00:25:57;;;;;;;34.70;13.43;;;;;;;2.44;83.88;100454.53;2178467;81;21130;-68
2021/03/01 00:28:58;;;;;;;32.15;12.55;;;;;;;2.46;83.86;100459.70;2178812;81;21182;-67
2021/03/01 00:31:59;;;;;;;30.80;13.72;;;;;;;2.49;83.67;100464.47;2178757;81;21453;-68
2021/03/01 00:35:00;;;;;;;33.35;13.62;;;;;;;2.50;83.82;100466.61;2178456;82;21301;-67
2021/03/01 00:38:01;;;;;;;32.05;13.78;;;;;;;2.52;83.79;100468.34;2178819;81;21133;-66
2021/03/01 00:41:02;;;;;;;34.48;13.68;;;;;;;2.50;83.78;100468.80;2150594;82;21260;-68
2021/03/01 00:44:04;;;;;;;32.45;13.25;;;;;;;2.50;84.11;100469.20;2174780;81;21701;-67
2021/03/01 00:47:05;;;;;;;31.27;12.60;;;;;;;2.52;84.09;100468.79;2160991;82;21615;-67
2021/03/01 00:50:06;;;;;;;31.02;13.53;;;;;;;2.54;83.58;100466.63;2161390;82;21298;-67
2021/03/01 00:53:07;;;;;;;33.63;13.88;;;;;;;2.57;83.67;100470.91;2160997;82;21123;-67
2021/03/01 00:56:08;;;;;;;32.65;12.85;;;;;;;2.58;83.85;100462.29;2161118;82;21789;-67
2021/03/01 00:59:09;;;;;;;31.45;13.55;;;;;;;2.57;84.22;100470.91;2161015;82;21587;-71
2021/03/01 01:02:10;;;;;;;30.75;12.53;;;;;;;2.55;83.94;100468.77;2161014;82;21139;-71
2021/03/01 01:05:12;;;;;;;31.80;12.77;;;;;;;2.52;84.29;100473.97;2161264;82;21124;-67
2021/03/01 01:08:14;;;;;;;30.63;12.47;;;;;;;2.54;83.57;100473.11;2161635;82;21289;-71
2021/03/01 01:11:15;;;;;;;31.30;12.58;;;;;;;2.57;83.39;100474.39;2161339;82;21139;-71
2021/03/01 01:14:16;;;;;;;29.40;12.95;;;;;;;2.57;83.98;100473.09;2161008;82;21108;-67
2021/03/01 01:17:17;;;;;;;31.10;13.53;;;;;;;2.58;83.74;100479.98;2160988;82;21143;-67
2021/03/01 01:20:18;;;;;;;30.45;12.93;;;;;;;2.60;83.38;100473.09;2161012;82;21611;-67
2021/03/01 01:23:19;;;;;;;33.70;14.15;;;;;;;2.61;83.70;100477.82;2160985;82;21578;-67
2021/03/01 01:26:20;;;;;;;32.00;13.35;;;;;;;2.61;83.47;100480.41;2160950;82;21601;-71
2021/03/01 01:29:21;;;;;;;33.48;12.63;;;;;;;2.63;83.56;100477.81;2160985;82;21146;-71
2021/03/01 01:32:22;;;;;;;29.60;12.78;;;;;;;2.63;83.49;100483.88;2161301;82;21288;-71
2021/03/01 01:35:23;;;;;;;33.02;13.20;;;;;;;2.64;83.28;100476.96;2160994;82;21155;-70
2021/03/01 01:38:25;;;;;;;31.48;13.75;;;;;;;2.64;83.59;100484.29;2161015;82;21157;-70
2021/03/01 01:41:26;;;;;;;32.53;13.83;;;;;;;2.63;83.39;100489.06;2160980;82;21155;-67
2021/03/01 01:44:27;;;;;;;28.67;12.43;;;;;;;2.62;83.24;100478.27;2164879;82;21155;-67
2021/03/01 01:47:28;;;;;;;30.20;11.83;;;;;;;2.61;83.75;100489.48;2178358;81;21143;-67
2021/03/01 01:50:30;;;;;;;30.52;12.63;;;;;;;2.61;83.62;100488.19;2178390;81;21133;-67
2021/03/01 01:53:31;;;;;;;30.48;12.35;;;;;;;2.63;83.27;100486.47;2178511;81;21146;-68
2021/03/01 01:56:32;;;;;;;31.15;13.85;;;;;;;2.68;83.36;100487.75;2178747;81;21150;-67
2021/03/01 01:59:34;;;;;;;32.67;13.58;;;;;;;2.70;83.36;100489.89;2178755;81;21146;-67
2021/03/01 02:02:35;;;;;;;28.85;12.58;;;;;;;2.71;83.06;100489.03;2178384;81;21264;-67
2021/03/01 02:05:36;;;;;;;31.65;13.72;;;;;;;2.70;83.25;100492.07;2178363;81;21344;-68
2021/03/01 02:08:37;;;;;;;31.70;13.38;;;;;;;2.68;83.29;100492.48;2178361;81;21253;-67
2021/03/01 02:11:38;;;;;;;30.62;12.37;;;;;;;2.68;83.09;100487.31;2178265;81;21800;-67
2021/03/01 02:14:39;;;;;;;31.10;12.63;;;;;;;2.70;83.10;100496.38;2178453;81;21554;-67
2021/03/01 02:17:40;;;;;;;29.72;12.78;;;;;;;2.71;83.18;100493.77;2178490;81;21095;-67
2021/03/01 02:20:41;;;;;;;30.82;13.18;;;;;;;2.73;83.12;100492.06;2178444;81;21739;-67
2021/03/01 02:23:42;;;;;;;30.23;13.53;;;;;;;2.76;83.05;100496.38;2178469;81;21155;-66
2021/03/01 02:26:43;;;;;;;34.13;13.72;;;;;;;2.75;83.24;100493.34;2178361;81;21281;-66
2021/03/01 02:29:44;;;;;;;35.95;15.30;;;;;;;2.73;83.01;100497.24;2178349;82;21566;-67
2021/03/01 02:32:47;;;;;;;32.38;13.95;;;;;;;2.75;83.12;100495.50;2178340;81;21264;-67
2021/03/01 02:35:48;;;;;;;29.52;12.07;;;;;;;2.72;83.15;100494.21;2178483;81;21759;-67
2021/03/01 02:38:49;;;;;;;29.45;13.20;;;;;;;2.70;82.89;100496.38;2178279;81;21272;-67
2021/03/01 02:41:50;;;;;;;29.02;12.88;;;;;;;2.71;83.22;100505.88;2178378;81;21720;-67
2021/03/01 02:44:51;;;;;;;30.43;13.15;;;;;;;2.73;83.12;100501.13;2178315;81;21297;-66
2021/03/01 02:47:52;;;;;;;29.30;12.95;;;;;;;2.74;83.09;100495.09;2178388;81;21741;-69
2021/03/01 02:50:53;;;;;;;31.73;14.33;;;;;;;2.74;83.20;100496.39;2178298;81;21288;-70
2021/03/01 02:53:55;;;;;;;30.48;13.30;;;;;;;2.73;83.08;100495.95;2178685;82;21289;-72
2021/03/01 02:56:56;;;;;;;33.73;14.23;;;;;;;2.72;83.29;100495.51;2178368;81;21276;-71
2021/03/01 02:59:57;;;;;;;33.40;13.05;;;;;;;2.72;83.13;100493.36;2178360;81;21581;-70
2021/03/01 03:02:59;;;;;;;31.07;12.80;;;;;;;2.72;83.29;100499.84;2178934;81;21256;-71
2021/03/01 03:06:00;;;;;;;29.50;12.90;;;;;;;2.72;83.36;100501.14;2178381;81;21277;-71
2021/03/01 03:09:01;;;;;;;31.85;13.68;;;;;;;2.73;83.44;100495.95;2178426;82;21578;-70
2021/03/01 03:12:02;;;;;;;30.60;13.62;;;;;;;2.71;83.55;100499.40;2178304;81;21701;-71
2021/03/01 03:15:03;;;;;;;33.85;14.85;;;;;;;2.69;83.43;100498.11;2178429;81;21598;-71
2021/03/01 03:18:04;;;;;;;32.40;14.78;;;;;;;2.68;83.55;100501.56;2178359;81;21297;-71
2021/03/01 03:21:06;;;;;;;33.55;14.13;;;;;;;2.68;83.46;100508.48;2178682;81;21281;-69
2021/03/01 03:24:07;;;;;;;35.23;14.25;;;;;;;2.69;83.42;100508.92;2178361;81;21261;-72
2021/03/01 03:27:08;;;;;;;30.08;12.50;;;;;;;2.70;83.33;100499.84;2178344;81;21324;-69
2021/03/01 03:30:09;;;;;;;31.68;13.05;;;;;;;2.73;83.46;100508.02;2178572;82;21150;-69
2021/03/01 03:33:10;;;;;;;30.82;13.85;;;;;;;2.73;83.45;100508.91;2178381;81;21301;-71
2021/03/01 03:36:11;;;;;;;31.55;13.72;;;;;;;2.74;83.39;100514.52;2178326;81;21320;-69
2021/03/01 03:39:12;;;;;;;29.52;13.40;;;;;;;2.73;83.78;100515.37;2178334;81;21269;-71
2021/03/01 03:42:13;;;;;;;32.60;14.70;;;;;;;2.72;83.49;100512.80;2178319;81;21273;-71
2021/03/01 03:45:14;;;;;;;32.30;13.98;;;;;;;2.69;83.58;100516.70;2178244;81;21280;-67
2021/03/01 03:48:15;;;;;;;31.77;13.45;;;;;;;2.66;83.56;100518.84;2178292;81;21720;-67
2021/03/01 03:51:16;;;;;;;32.23;13.38;;;;;;;2.69;83.77;100519.28;2178784;82;21171;-70
2021/03/01 03:54:17;;;;;;;32.63;14.83;;;;;;;2.69;83.60;100526.61;2178519;81;21308;-71
2021/03/01 03:57:18;;;;;;;37.48;14.68;;;;;;;2.73;83.67;100529.64;2178733;81;21282;-67
2021/03/01 04:00:20;;;;;;;33.30;14.78;;;;;;;2.75;83.44;100533.07;2178667;81;21135;-67
2021/03/01 04:03:22;;;;;;;34.15;14.98;;;;;;;2.76;83.38;100528.77;2178484;81;21134;-71
2021/03/01 04:06:23;;;;;;;;;;;;;;;2.76;83.52;100532.22;2181507;81;21332;-71
2021/03/01 04:09:24;;;;;;;31.75;13.78;;;;;;;2.76;83.38;100532.22;2178489;82;20233;-68
2021/03/01 04:12:25;;;;;;;30.35;13.62;;;;;;;2.76;83.61;100535.25;2178510;81;21265;-70
2021/03/01 04:15:27;;;;;;;30.37;13.03;;;;;;;2.74;83.35;100539.14;2178725;81;21292;-67
2021/03/01 04:18:29;;;;;;;32.63;14.53;;;;;;;2.75;83.48;100542.59;2178564;81;21289;-67
2021/03/01 04:21:30;;;;;;;33.00;14.90;;;;;;;2.74;83.50;100546.92;2178479;81;21126;-67
2021/03/01 04:24:31;;;;;;;31.02;14.25;;;;;;;2.75;83.54;100546.47;2178486;81;21264;-67
2021/03/01 04:27:32;;;;;;;32.30;14.90;;;;;;;2.74;83.57;100543.44;2178503;81;21257;-67
2021/03/01 04:30:33;;;;;;;33.55;15.50;;;;;;;2.69;83.83;100533.53;2178380;81;21296;-68
2021/03/01 04:33:34;;;;;;;34.43;15.70;;;;;;;2.71;83.61;100542.16;2178430;81;21261;-67
2021/03/01 04:36:35;;;;;;;33.48;14.53;;;;;;;2.70;83.94;100543.02;2178562;81;21304;-67
2021/03/01 04:39:36;;;;;;;31.10;13.45;;;;;;;2.68;83.72;100543.02;2178596;81;21284;-67
2021/03/01 04:42:38;;;;;;;32.70;13.62;;;;;;;2.71;83.63;100544.75;2178430;81;21625;-67
2021/03/01 04:45:39;;;;;;;32.83;14.10;;;;;;;2.72;83.66;100551.22;2178356;81;21563;-67
2021/03/01 04:48:40;;;;;;;33.33;15.03;;;;;;;2.71;83.65;100548.63;2178435;81;21609;-67
2021/03/01 04:51:41;;;;;;;35.13;15.18;;;;;;;2.71;83.56;100553.38;2178513;81;21729;-67
2021/03/01 04:54:43;;;;;;;32.57;15.20;;;;;;;2.69;83.72;100552.52;2179088;82;21272;-67
2021/03/01 04:57:44;;;;;;;33.90;14.47;;;;;;;2.70;83.82;100554.27;2178468;81;21254;-67
2021/03/01 05:00:45;;;;;;;30.95;13.00;;;;;;;2.69;83.83;100551.23;2178485;81;21297;-67
2021/03/01 05:03:46;;;;;;;29.52;13.20;;;;;;;2.67;84.07;100550.38;2178808;81;21194;-67
2021/03/01 05:06:47;;;;;;;32.55;14.68;;;;;;;2.66;84.08;100555.53;2178414;81;21305;-66
2021/03/01 05:09:48;;;;;;;31.68;14.10;;;;;;;2.67;84.00;100558.16;2178528;81;21316;-68
2021/03/01 05:12:49;;;;;;;29.82;14.30;;;;;;;2.71;84.11;100553.38;2178502;81;21262;-67
2021/03/01 05:15:50;;;;;;;30.72;14.28;;;;;;;2.69;84.24;100560.30;2178427;81;21264;-68
2021/03/01 05:18:51;;;;;;;35.43;15.68;;;;;;;2.67;84.13;100564.63;2178413;81;21709;-66
2021/03/01 05:21:52;;;;;;;34.00;15.40;;;;;;;2.66;84.10;100573.67;2178361;81;21312;-68
2021/03/01 05:24:53;;;;;;;31.85;14.33;;;;;;;2.68;84.21;100570.67;2178374;81;21151;-66
2021/03/01 05:27:54;;;;;;;33.30;14.45;;;;;;;2.66;84.09;100571.97;2178397;81;21308;-66
2021/03/01 05:30:55;;;;;;;33.25;14.18;;;;;;;2.67;84.22;100575.41;2178380;81;21126;-67
2021/03/01 05:33:57;;;;;;;33.53;14.20;;;;;;;2.68;84.13;100575.41;2178437;81;21110;-66
2021/03/01 05:36:58;;;;;;;34.92;15.10;;;;;;;2.69;84.29;100577.59;2178446;81;21309;-67
2021/03/01 05:40:00;;;;;;;36.48;15.23;;;;;;;2.70;84.38;100578.88;2178598;81;21700;-67
2021/03/01 05:43:01;;;;;;;33.50;15.00;;;;;;;2.68;84.10;100583.18;2178561;82;21713;-67
2021/03/01 05:46:02;;;;;;;33.90;15.72;;;;;;;2.64;84.42;100581.89;2171472;82;21269;-67
2021/03/01 05:49:03;;;;;;;35.58;15.68;;;;;;;2.63;84.30;100584.92;2160964;82;21183;-66
2021/03/01 05:52:04;;;;;;;35.38;15.30;;;;;;;2.62;84.22;100583.19;2160983;82;21138;-67
2021/03/01 05:55:06;;;;;;;35.23;14.65;;;;;;;2.65;84.26;100590.11;2160997;82;21713;-67
2021/03/01 05:58:07;;;;;;;38.15;15.98;;;;;;;2.69;84.22;100584.06;2160989;82;21599;-67
2021/03/01 06:01:08;;;;;;;34.65;15.43;;;;;;;2.71;84.04;100587.50;2161092;82;21321;-66
2021/03/01 06:04:09;;;;;;;34.92;15.55;;;;;;;2.74;84.03;100586.20;2161320;82;21305;-67
2021/03/01 06:07:10;;;;;;;35.73;15.63;;;;;;;2.77;84.05;100590.08;2160930;82;21599;-67
2021/03/01 06:10:12;;;;;;;37.00;16.02;;;;;;;2.78;84.09;100595.27;2161278;82;21725;-66
2021/03/01 06:13:13;;;;;;;34.18;15.55;;;;;;;2.83;83.94;100595.69;2160963;82;21159;-67
2021/03/01 06:16:14;;;;;;;34.45;14.90;;;;;;;2.83;83.79;100600.88;2160918;82;21298;-68
2021/03/01 06:19:15;;;;;;;33.85;15.25;;;;;;;2.87;83.78;100600.86;2161006;82;21119;-68
2021/03/01 06:22:16;;;;;;;35.48;15.50;;;;;;;2.93;83.68;100606.48;2160950;82;21131;-67
2021/03/01 06:25:17;;;;;;;35.05;15.58;;;;;;;2.97;83.50;100612.09;2160926;82;21139;-67
2021/03/01 06:28:19;;;;;;;37.80;16.15;;;;;;;3.01;83.62;100617.70;2161088;82;21130;-67
2021/03/01 06:31:20;;;;;;;37.05;16.17;;;;;;;3.02;83.53;100617.30;2160952;82;21099;-68
2021/03/01 06:34:21;;;;;;;34.75;15.75;;;;;;;3.03;83.66;100627.66;2160954;82;21740;-68
2021/03/01 06:37:22;;;;;;;36.20;16.02;;;;;;;3.03;83.36;100626.36;2140599;82;21571;-68
2021/03/01 06:40:23;;;;;;;36.05;15.23;;;;;;;3.05;83.35;100627.21;2160916;82;21104;-67
2021/03/01 06:43:24;;;;;;;32.25;14.07;;;;;;;3.07;83.48;100631.95;2160927;82;21107;-67
2021/03/01 06:46:25;;;;;;;37.30;16.48;;;;;;;3.09;83.35;100629.38;2168284;81;21166;-67
2021/03/01 06:49:26;;;;;;;36.45;15.65;;;;;;;3.12;83.14;100631.97;2178687;82;21264;-67
2021/03/01 06:52:27;;;;;;;35.75;16.50;;;;;;;3.17;83.14;100636.69;2178338;81;21288;-67
2021/03/01 06:55:30;;;;;;;37.00;16.20;;;;;;;3.20;83.14;100643.61;2178849;81;21146;-67
2021/03/01 06:58:31;;;;;;;37.30;16.00;;;;;;;3.23;83.24;100643.60;2178362;81;21284;-67
2021/03/01 07:01:32;;;;;;;35.83;16.60;;;;;;;3.22;82.93;100644.05;2178553;81;21277;-67
2021/03/01 07:04:34;;;;;;;35.50;15.93;;;;;;;3.28;82.93;100647.92;2178313;81;21748;-67
2021/03/01 07:07:35;;;;;;;35.77;15.40;;;;;;;3.32;83.04;100651.38;2178877;81;21170;-67
2021/03/01 07:10:36;;;;;;;36.53;15.48;;;;;;;3.33;83.22;100656.12;2178308;81;21103;-66
2021/03/01 07:13:37;;;;;;;36.03;16.25;;;;;;;3.31;82.68;100657.87;2178292;81;21155;-67
2021/03/01 07:16:38;;;;;;;38.42;17.50;;;;;;;3.27;83.04;100652.66;2178329;81;21119;-67
2021/03/01 07:19:41;;;;;;;38.67;16.32;;;;;;;3.32;83.02;100647.91;2178572;81;21724;-66
2021/03/01 07:22:42;;;;;;;37.80;15.93;;;;;;;3.33;82.62;100665.20;2178782;81;21151;-67
2021/03/01 07:25:44;;;;;;;36.23;16.27;;;;;;;3.33;82.80;100661.31;2178434;81;21294;-68
2021/03/01 07:28:45;;;;;;;34.20;14.68;;;;;;;3.34;82.99;100663.91;2150793;82;21281;-67
2021/03/01 07:31:46;;;;;;;33.75;15.25;;;;;;;3.42;82.59;100672.54;2178885;81;21110;-67
2021/03/01 07:34:47;;;;;;;38.58;15.53;;;;;;;3.47;82.51;100671.23;2178547;81;21300;-67
2021/03/01 07:37:48;;;;;;;36.50;16.30;;;;;;;3.54;82.08;100673.38;2150886;82;21785;-68
2021/03/01 07:40:49;;;;;;;37.65;16.82;;;;;;;3.57;82.18;100672.92;2178465;81;21721;-67
2021/03/01 07:43:50;;;;;;;34.18;14.28;;;;;;;3.60;82.33;100678.10;2178522;81;21265;-67
2021/03/01 07:46:51;;;;;;;32.90;13.72;;;;;;;3.55;81.22;100681.57;2178412;81;21317;-67
2021/03/01 07:49:52;;;;;;;35.48;14.20;;;;;;;3.47;81.31;100680.30;2178486;81;21135;-67
2021/03/01 07:52:54;;;;;;;32.60;14.23;;;;;;;3.50;80.75;100690.67;2178595;81;21282;-67
2021/03/01 07:55:55;;;;;;;34.83;14.25;;;;;;;3.49;81.14;100680.30;2178506;81;21150;-67
2021/03/01 07:58:56;;;;;;;34.35;14.95;;;;;;;3.52;81.56;100683.77;2178530;81;21276;-67
2021/03/01 08:01:57;;;;;;;36.05;14.83;;;;;;;3.59;81.36;100684.18;2178476;81;21417;-67
2021/03/01 08:04:58;;;;;;;39.35;15.78;;;;;;;3.57;81.76;100685.90;2178581;81;21639;-68
2021/03/01 08:07:59;;;;;;;33.33;14.60;;;;;;;3.51;81.73;100696.30;2178739;81;21701;-67
2021/03/01 08:11:00;;;;;;;34.13;14.43;;;;;;;3.50;81.38;100693.71;2178443;81;21281;-68
2021/03/01 08:14:02;;;;;;;33.05;13.28;;;;;;;3.58;81.43;100697.16;2178752;81;21138;-67
2021/03/01 08:17:05;;;;;;;32.40;12.98;;;;;;;3.64;80.39;100695.39;2178497;81;21276;-71
2021/03/01 08:20:06;;;;;;;33.63;14.07;;;;;;;3.75;80.26;100688.00;2178459;81;21277;-69
2021/03/01 08:23:09;;;;;;;32.42;13.62;;;;;;;3.89;79.94;100694.45;2178491;81;21557;-70
2021/03/01 08:26:10;;;;;;;31.95;13.25;;;;;;;3.97;79.71;100688.81;2150689;82;21300;-68
2021/03/01 08:29:11;;;;;;;31.17;12.25;;;;;;;3.98;79.81;100697.03;2178827;81;21166;-68
2021/03/01 08:32:12;;;;;;;30.27;11.45;;;;;;;3.99;78.54;100697.03;2178787;81;21142;-71
2021/03/01 08:35:13;;;;;;;31.77;12.60;;;;;;;4.05;79.46;100698.73;2178391;81;21288;-67
2021/03/01 08:38:14;;;;;;;28.02;10.50;;;;;;;4.06;78.98;100708.68;2178799;81;21138;-71
2021/03/01 08:41:15;;;;;;;31.45;13.48;;;;;;;3.95;77.94;100708.70;2178431;82;21292;-68
2021/03/01 08:44:17;;;;;;;32.17;14.03;;;;;;;3.92;79.37;100704.41;2178440;81;21273;-67
2021/03/01 08:47:18;;;;;;;31.20;13.00;;;;;;;3.93;79.15;100712.61;2178330;81;21296;-70
2021/03/01 08:50:19;;;;;;;30.88;13.83;;;;;;;3.93;79.50;100720.84;2150526;82;21261;-69
2021/03/01 08:53:20;;;;;;;31.93;13.72;;;;;;;3.91;79.84;100714.36;2178452;82;21114;-69
2021/03/01 08:56:21;;;;;;;30.90;12.82;;;;;;;3.88;79.34;100719.98;2178426;82;21276;-68
2021/03/01 08:59:23;;;;;;;29.40;11.97;;;;;;;3.87;79.71;100721.73;2178539;81;21697;-68
2021/03/01 09:02:25;;;;;;;31.10;12.45;;;;;;;3.92;79.85;100719.11;2178878;81;21174;-71
2021/03/01 09:05:26;;;;;;;29.35;12.60;;;;;;;3.95;79.57;100726.88;2178417;81;21269;-71
2021/03/01 09:08:27;;;;;;;29.27;12.35;;;;;;;3.94;79.47;100731.22;2178581;81;21276;-71
2021/03/01 09:11:29;;;;;;;29.27;12.68;;;;;;;3.94;79.00;100731.67;2178508;81;21784;-68
2021/03/01 09:14:32;;;;;;;28.73;11.57;;;;;;;3.90;79.20;100737.73;2178536;81;21142;-67
2021/03/01 09:17:33;;;;;;;31.55;13.15;;;;;;;3.80;79.68;100729.95;2178432;81;21285;-68
2021/03/01 09:20:35;;;;;;;28.45;12.05;;;;;;;3.80;79.80;100728.66;2178424;81;21138;-67
2021/03/01 09:23:36;;;;;;;29.00;12.65;;;;;;;3.78;79.25;100740.79;2178452;81;21281;-67
2021/03/01 09:26:37;;;;;;;28.70;12.35;;;;;;;3.81;80.23;100727.80;2178726;81;21308;-67
2021/03/01 09:29:38;;;;;;;31.12;12.15;;;;;;;3.91;79.90;100738.17;2178641;81;21288;-67
2021/03/01 09:32:39;;;;;;;27.65;10.63;;;;;;;3.93;79.09;100745.51;2178343;81;21296;-67
2021/03/01 09:35:40;;;;;;;32.53;11.78;;;;;;;3.81;78.68;100738.19;2178381;82;21142;-67
2021/03/01 09:38:41;;;;;;;28.60;11.65;;;;;;;3.76;79.35;100752.04;2178533;81;21280;-68
2021/03/01 09:41:43;;;;;;;29.60;11.07;;;;;;;3.75;78.90;100756.38;2178645;82;21106;-67
2021/03/01 09:44:44;;;;;;;28.10;10.90;;;;;;;3.70;79.47;100753.36;2178492;81;21276;-67
2021/03/01 09:47:45;;;;;;;29.32;12.53;;;;;;;3.64;79.57;100749.04;2178406;81;21174;-67
2021/03/01 09:50:47;;;;;;;29.37;12.13;;;;;;;3.70;80.43;100751.62;2178494;81;21281;-67
2021/03/01 09:53:48;;;;;;;29.45;11.57;;;;;;;3.77;78.99;100745.55;2150653;82;21280;-67
2021/03/01 09:56:50;;;;;;;28.77;11.95;;;;;;;3.88;79.58;100752.44;2178403;81;21257;-67
2021/03/01 09:59:51;;;;;;;33.63;12.82;;;;;;;3.96;79.35;100757.18;2178440;81;21269;-67
2021/03/01 10:02:52;;;;;;;31.40;13.73;;;;;;;4.01;78.96;100755.86;2178735;81;21142;-67
2021/03/01 10:05:54;;;;;;;29.90;12.78;;;;;;;4.07;78.96;100761.05;2178456;81;21753;-67
2021/03/01 10:08:57;;;;;;;31.48;12.58;;;;;;;4.10;79.65;100765.78;2178619;81;21158;-68
2021/03/01 10:11:59;;;;;;;32.25;14.05;;;;;;;4.16;78.21;100768.36;2178579;82;21142;-67
2021/03/01 10:15:00;;;;;;;35.65;13.95;;;;;;;4.19;78.44;100764.03;2150468;82;21241;-68
2021/03/01 10:18:02;;;;;;;31.17;14.30;;;;;;;4.12;77.39;100767.97;2178520;81;21265;-67
2021/03/01 10:21:03;;;;;;;35.05;15.90;;;;;;;4.09;78.30;100770.99;2178325;82;21312;-67
2021/03/01 10:24:06;;;;;;;37.17;17.30;;;;;;;4.09;78.79;100775.73;2178327;81;21265;-67
2021/03/01 10:27:09;;;;;;;40.25;17.37;;;;;;;4.05;78.46;100776.64;2177956;82;21169;-66
2021/03/01 10:30:10;;;;;;;37.80;16.82;;;;;;;3.92;78.89;100781.42;2178349;81;21119;-68
2021/03/01 10:33:11;;;;;;;38.20;17.77;;;;;;;3.83;79.65;100776.27;2178350;81;21269;-67
2021/03/01 10:36:12;;;;;;;41.45;18.20;;;;;;;3.83;79.23;100786.20;2178342;81;21276;-67
2021/03/01 10:39:13;;;;;;;33.98;14.98;;;;;;;3.77;79.90;100784.92;2178668;81;21150;-67
2021/03/01 10:42:14;;;;;;;39.78;17.20;;;;;;;3.71;79.78;100788.84;2178293;82;21143;-67
2021/03/01 10:45:15;;;;;;;41.08;18.98;;;;;;;3.72;80.39;100787.53;2178608;82;21280;-67
2021/03/01 10:48:16;;;;;;;40.95;19.37;;;;;;;3.72;81.02;100787.53;2157063;81;21272;-67
2021/03/01 10:51:17;;;;;;;40.75;17.40;;;;;;;3.75;80.22;100787.94;2187985;81;21288;-67
2021/03/01 10:54:19;;;;;;;42.38;19.02;;;;;;;3.80;79.57;100788.80;2188033;81;21308;-66
2021/03/01 10:57:21;;;;;;;42.05;18.73;;;;;;;3.79;80.03;100793.56;2187989;81;21720;-67
2021/03/01 11:00:22;;;;;;;44.38;19.27;;;;;;;3.78;79.43;100785.36;2188086;81;21103;-67
2021/03/01 11:03:23;;;;;;;43.70;19.95;;;;;;;3.81;79.58;100786.66;2187973;81;21134;-67
2021/03/01 11:06:24;;;;;;;43.70;19.95;;;;;;;3.86;79.31;100780.14;2188033;81;21324;-67
2021/03/01 11:09:25;;;;;;;42.62;19.48;;;;;;;3.90;79.20;100789.22;2188088;81;21138;-67
2021/03/01 11:12:26;;;;;;;42.90;18.62;;;;;;;3.91;79.28;100787.05;2187972;81;21110;-67
2021/03/01 11:15:27;;;;;;;39.13;19.05;;;;;;;3.93;79.22;100785.75;2188106;81;21717;-67
2021/03/01 11:18:28;;;;;;;45.45;20.30;;;;;;;3.90;79.62;100789.22;2187971;81;21637;-67
2021/03/01 11:21:29;;;;;;;47.35;19.60;;;;;;;3.89;79.62;100794.41;2187916;81;21162;-67
2021/03/01 11:24:30;;;;;;;45.35;19.90;;;;;;;3.83;79.28;100795.29;2159842;81;21154;-67
2021/03/01 11:27:32;;;;;;;44.73;19.82;;;;;;;3.83;79.23;100789.24;2188064;81;21122;-67
2021/03/01 11:30:34;;;;;;;42.05;18.20;;;;;;;3.84;79.88;100795.73;2187953;81;21134;-66
2021/03/01 11:33:35;;;;;;;51.68;18.65;;;;;;;3.81;79.77;100794.00;2187986;81;21130;-67
2021/03/01 11:36:36;;;;;;;44.42;20.55;;;;;;;3.81;79.84;100797.03;2188077;81;21260;-67
2021/03/01 11:39:37;;;;;;;41.20;18.17;;;;;;;3.83;79.84;100797.03;2188397;81;21296;-67
2021/03/01 11:42:38;;;;;;;36.95;17.37;;;;;;;3.89;79.57;100791.81;2188192;81;21284;-67
2021/03/01 11:45:39;;;;;;;39.05;17.23;;;;;;;3.90;79.14;100794.41;2187904;81;21150;-70
2021/03/01 11:48:40;;;;;;;37.65;16.70;;;;;;;3.89;79.31;100796.56;2180854;81;21320;-66
2021/03/01 11:51:42;;;;;;;38.60;17.80;;;;;;;3.87;79.24;100793.56;2178310;81;21131;-67
2021/03/01 11:54:43;;;;;;;38.98;17.12;;;;;;;3.91;79.73;100794.84;2178324;81;21270;-68
2021/03/01 11:57:44;;;;;;;38.88;18.20;;;;;;;4.01;79.29;100792.22;2178331;81;21123;-67
2021/03/01 12:00:45;;;;;;;37.17;18.23;;;;;;;4.04;79.33;100787.89;2178260;82;21265;-67
2021/03/01 12:03:46;;;;;;;39.43;17.97;;;;;;;4.09;78.43;100796.52;2178794;81;21700;-66
2021/03/01 12:06:48;;;;;;;37.55;16.85;;;;;;;4.10;78.34;100790.91;2178291;81;21328;-66
2021/03/01 12:09:50;;;;;;;;;;;;;;;4.18;78.56;100794.36;2181008;81;21292;-67
2021/03/01 12:12:51;;;;;;;40.30;18.42;;;;;;;4.20;78.50;100791.75;2178576;82;20229;-67
2021/03/01 12:15:52;;;;;;;39.95;18.10;;;;;;;4.15;78.49;100790.03;2178535;81;21733;-67
2021/03/01 12:18:53;;;;;;;39.92;17.62;;;;;;;4.08;78.54;100792.22;2178513;81;21257;-67
2021/03/01 12:21:54;;;;;;;44.67;20.27;;;;;;;4.06;78.20;100796.53;2178462;81;21288;-67
2021/03/01 12:24:56;;;;;;;41.65;18.27;;;;;;;4.04;78.93;100792.20;2178478;81;21725;-67
2021/03/01 12:27:57;;;;;;;41.23;20.48;;;;;;;4.04;78.75;100794.38;2178457;81;21591;-67
2021/03/01 12:30:58;;;;;;;39.00;17.32;;;;;;;3.99;78.45;100788.33;2178573;81;21562;-67
2021/03/01 12:33:59;;;;;;;42.55;20.48;;;;;;;3.96;78.69;100793.08;2178681;82;21146;-66
2021/03/01 12:37:00;;;;;;;43.25;19.80;;;;;;;3.93;78.95;100781.86;2178479;81;21285;-67
2021/03/01 12:40:01;;;;;;;41.98;20.12;;;;;;;3.94;79.17;100783.15;2178432;81;21578;-67
2021/03/01 12:43:02;;;;;;;42.67;19.55;;;;;;;4.01;78.77;100788.32;2178652;81;21284;-67
2021/03/01 12:46:03;;;;;;;38.45;18.10;;;;;;;4.07;79.00;100777.94;2178458;82;21162;-67
2021/03/01 12:49:04;;;;;;;43.80;21.10;;;;;;;4.12;78.64;100770.56;2178384;81;21594;-68
2021/03/01 12:52:05;;;;;;;50.80;24.07;;;;;;;4.12;79.02;100772.27;2178662;81;21717;-68
2021/03/01 12:55:07;;;;;;;48.48;22.45;;;;;;;4.13;79.00;100769.67;2178460;81;21264;-69
2021/03/01 12:58:08;;;;;;;50.43;23.47;;;;;;;4.06;78.94;100770.56;2178447;81;21273;-66
2021/03/01 13:01:13;;;;;;;49.75;24.40;;;;;;;4.11;79.89;100768.83;2178427;81;21282;-67
2021/03/01 13:04:15;;;;;;;45.43;22.20;;;;;;;4.20;79.03;100764.03;2178688;81;21277;-68
2021/03/01 13:07:16;;;;;;;47.43;22.27;;;;;;;4.23;78.97;100769.66;2178399;81;21150;-67
2021/03/01 13:10:17;;;;;;;45.33;20.62;;;;;;;4.16;78.22;100768.80;2178568;82;21499;-67
2021/03/01 13:13:19;;;;;;;45.85;20.60;;;;;;;4.12;78.83;100767.97;2178447;82;21720;-67
2021/03/01 13:16:20;;;;;;;53.30;23.45;;;;;;;4.12;79.09;100764.07;2178786;82;21166;-67
2021/03/01 13:19:21;;;;;;;46.80;22.67;;;;;;;4.14;78.82;100776.59;2178456;81;21283;-67
2021/03/01 13:22:22;;;;;;;48.13;24.23;;;;;;;4.10;78.93;100773.58;2178498;81;21696;-67
2021/03/01 13:25:23;;;;;;;47.98;22.05;;;;;;;4.05;79.35;100777.94;2178450;81;21281;-66
2021/03/01 13:28:25;;;;;;;47.53;23.22;;;;;;;3.99;79.75;100772.75;2178629;81;21748;-67
2021/03/01 13:31:26;;;;;;;53.40;26.23;;;;;;;3.98;79.26;100773.19;2178497;82;21732;-67
2021/03/01 13:34:28;;;;;;;53.28;25.88;;;;;;;4.02;80.04;100773.17;2178438;81;21764;-66
2021/03/01 13:37:29;;;;;;;55.70;25.33;;;;;;;4.04;79.63;100776.62;2179019;81;21158;-68
2021/03/01 13:40:31;;;;;;;48.78;22.25;;;;;;;4.04;79.58;100771.42;2178425;81;21325;-67
2021/03/01 13:43:33;;;;;;;46.75;22.20;;;;;;;4.08;79.57;100768.84;2178488;81;21728;-67
2021/03/01 13:46:35;;;;;;;47.62;21.73;;;;;;;4.18;79.16;100773.58;2178506;82;21312;-67
2021/03/01 13:49:38;;;;;;;41.98;20.55;;;;;;;4.19;78.80;100776.58;2163272;81;21307;-68
2021/03/01 13:52:40;;;;;;;45.33;21.07;;;;;;;4.21;78.95;100770.08;2161098;82;21143;-67